Time;durP1;ratioP1;P1;durP2;ratioP2;P2;SDS_P1;SDS_P2;PMS_P1;PMS_P2;Temp;Humidity;BMP_temperature;BMP_pressure;BME280_temperature;BME280_humidity;BME280_pressure;Samples;Min_cycle;Max_cycle;Signal;HPM_P1;HPM_P2
2023/04/08 00:00:07;;;;;;;4.07;2.50;;;;;;;7.50;96.18;102158.38;5052968;28;20116;-82
2023/04/08 00:02:38;;;;;;;4.03;2.70;;;;;;;7.49;96.34;102164.41;5052810;28;20082;-82
2023/04/08 00:05:05;;;;;;;3.08;2.50;;;;;;;7.53;96.57;102160.16;5052060;28;20040;-82
2023/04/08 00:07:30;;;;;;;2.75;2.40;;;;;;;7.51;96.13;102164.41;5052199;28;20029;-82
2023/04/08 00:09:55;;;;;;;3.40;2.50;;;;;;;7.52;96.34;102164.47;5052836;28;20021;-82
2023/04/08 00:12:21;;;;;;;4.03;2.77;;;;;;;7.50;95.97;102160.97;5051638;28;20473;-82
2023/04/08 00:14:46;;;;;;;3.43;2.77;;;;;;;7.56;96.46;102167.97;5052599;28;20021;-82
2023/04/08 00:17:17;;;;;;;4.43;3.17;;;;;;;7.54;96.36;102167.06;5052544;28;20025;-82
2023/04/08 00:19:43;;;;;;;3.13;2.67;;;;;;;7.56;96.50;102165.38;5051733;28;20469;-82
2023/04/08 00:22:08;;;;;;;3.75;2.72;;;;;;;7.56;96.63;102160.22;5052873;28;20078;-82
2023/04/08 00:24:35;;;;;;;3.60;2.70;;;;;;;7.54;96.29;102160.16;5052106;28;20021;-82
2023/04/08 00:27:01;;;;;;;4.07;2.83;;;;;;;7.55;96.65;102168.81;5052160;28;20028;-82
2023/04/08 00:29:27;;;;;;;3.00;2.45;;;;;;;7.55;96.70;102166.22;5052747;28;20032;-83
2023/04/08 00:31:52;;;;;;;3.10;2.40;;;;;;;7.53;96.46;102162.72;5052407;28;20044;-82
2023/04/08 00:34:17;;;;;;;3.97;2.60;;;;;;;7.51;96.51;102157.53;5051840;28;20056;-82
2023/04/08 00:36:44;;;;;;;2.63;2.40;;;;;;;7.53;97.25;102154.97;5052347;28;20456;-82
2023/04/08 00:39:10;;;;;;;3.67;2.53;;;;;;;7.54;97.00;102159.31;5051877;28;20021;-82
2023/04/08 00:41:35;;;;;;;3.27;2.30;;;;;;;7.54;97.45;102167.06;5052095;28;20036;-82
2023/04/08 00:44:01;;;;;;;2.57;2.20;;;;;;;7.53;97.16;102171.38;5052111;28;20025;-82
2023/04/08 00:46:27;;;;;;;2.40;2.20;;;;;;;7.53;97.31;102166.19;5051542;28;20729;-82
2023/04/08 00:48:53;;;;;;;3.77;2.37;;;;;;;7.54;97.41;102175.66;5052779;28;20070;-82
2023/04/08 00:51:19;;;;;;;2.95;2.25;;;;;;;7.52;97.30;102171.31;5052477;28;20021;-82
2023/04/08 00:53:44;;;;;;;3.33;2.50;;;;;;;7.53;97.09;102176.53;5051359;28;20065;-82
2023/04/08 00:56:10;;;;;;;3.50;2.70;;;;;;;7.55;97.09;102168.81;5052516;28;20070;-82
2023/04/08 00:58:36;;;;;;;3.23;2.50;;;;;;;7.55;97.62;102172.25;5052111;28;20491;-83
2023/04/08 01:01:29;;;;;;;3.67;2.43;;;;;;;7.56;97.28;102175.72;5051310;28;20049;-82
2023/04/08 01:04:08;;;;;;;4.30;2.80;;;;;;;7.55;97.06;102168.81;5052015;28;20412;-82
2023/04/08 01:06:46;;;;;;;8.40;3.75;;;;;;;7.55;98.04;102173.97;5051772;28;20017;-82
2023/04/08 01:09:12;;;;;;;5.22;3.22;;;;;;;7.55;97.76;102173.97;5051414;28;20122;-82
2023/04/08 01:11:43;;;;;;;4.63;3.00;;;;;;;7.53;97.71;102171.38;5051874;28;20060;-83
2023/04/08 01:14:10;;;;;;;5.20;3.22;;;;;;;7.56;97.62;102174.00;5052010;28;20469;-82
2023/04/08 01:16:38;;;;;;;4.03;2.90;;;;;;;7.56;97.75;102181.75;5050714;28;20527;-82
2023/04/08 01:19:07;;;;;;;4.10;2.95;;;;;;;7.56;97.79;102180.88;5052130;28;20036;-82
2023/04/08 01:21:32;;;;;;;4.78;3.15;;;;;;;7.55;97.80;102173.97;5055272;28;20087;-82
2023/04/08 01:24:08;;;;;;;5.43;3.30;;;;;;;7.55;97.59;102174.81;5055697;28;20029;-82
2023/04/08 01:26:34;;;;;;;5.32;3.33;;;;;;;7.54;97.46;102173.09;5055604;28;20049;-82
2023/04/08 01:29:01;;;;;;;5.53;3.35;;;;;;;7.50;97.38;102160.97;5055073;28;20079;-83
2023/04/08 01:31:28;;;;;;;6.05;3.40;;;;;;;7.56;97.35;102176.56;5055328;28;20057;-82
2023/04/08 01:33:55;;;;;;;5.45;3.40;;;;;;;7.57;97.79;102178.31;5055770;28;20029;-82
2023/04/08 01:36:23;;;;;;;6.97;3.58;;;;;;;7.58;97.67;102180.06;5054771;28;20444;-83
2023/04/08 01:38:51;;;;;;;5.40;3.50;;;;;;;7.58;97.82;102180.06;5055521;28;20025;-83
2023/04/08 01:41:18;;;;;;;6.32;3.63;;;;;;;7.59;97.81;102183.53;5055814;28;20025;-83
2023/04/08 01:43:43;;;;;;;;;;;;;;;7.59;97.83;102186.13;5055072;28;20167;-82
2023/04/08 01:46:11;;;;;;;6.93;3.70;;;;;;;7.60;97.99;102186.97;5055188;28;20342;-82
2023/04/08 01:48:38;;;;;;;5.68;3.30;;;;;;;7.60;98.25;102192.13;5055385;28;20037;-83
2023/04/08 01:51:05;;;;;;;6.00;3.20;;;;;;;7.58;98.52;102190.41;5054601;28;20040;-83
2023/04/08 01:53:31;;;;;;;4.53;3.05;;;;;;;7.53;98.24;102181.69;5054867;28;20056;-83
2023/04/08 01:56:10;;;;;;;6.15;3.03;;;;;;;7.56;98.21;102192.06;5055024;28;20098;-83
2023/04/08 01:58:45;;;;;;;4.68;3.15;;;;;;;7.56;98.37;102186.91;5053002;28;20021;-83
2023/04/08 02:01:16;;;;;;;5.28;3.17;;;;;;;7.56;98.37;102189.50;5055261;28;20457;-83
2023/04/08 02:03:44;;;;;;;5.45;3.10;;;;;;;7.56;98.51;102189.50;5054294;28;20087;-83
2023/04/08 02:06:09;;;;;;;4.75;3.38;;;;;;;7.56;98.44;102186.91;5055140;28;20021;-83
2023/04/08 02:08:35;;;;;;;6.17;3.40;;;;;;;7.57;97.96;102185.22;5054957;28;20029;-83
2023/04/08 02:11:02;;;;;;;4.93;3.13;;;;;;;7.55;98.18;102185.16;5054331;28;20108;-82
2023/04/08 02:13:28;;;;;;;5.68;3.30;;;;;;;7.54;98.37;102185.16;5054664;28;20017;-83
2023/04/08 02:16:02;;;;;;;6.35;3.40;;;;;;;7.57;98.43;102188.66;5054589;28;20025;-83
2023/04/08 02:18:29;;;;;;;6.18;3.30;;;;;;;7.58;98.37;102194.72;5053921;28;20021;-83
2023/04/08 02:21:10;;;;;;;8.02;4.05;;;;;;;7.58;98.29;102199.88;5054817;28;20107;-83
2023/04/08 02:23:38;;;;;;;5.70;3.50;;;;;;;7.58;98.45;102199.88;5055917;28;20036;-83
2023/04/08 02:26:11;;;;;;;6.95;3.92;;;;;;;7.55;98.60;102192.91;5053870;28;20119;-83
2023/04/08 02:28:38;;;;;;;8.23;3.90;;;;;;;7.57;98.23;102187.78;5054291;28;20477;-83
2023/04/08 02:31:07;;;;;;;7.03;4.22;;;;;;;7.57;98.24;102187.78;5054320;28;20032;-83
2023/04/08 02:33:34;;;;;;;6.70;3.83;;;;;;;7.58;98.46;102198.16;5053975;28;20029;-83
2023/04/08 02:36:00;;;;;;;;;;;;;;;7.58;98.36;102198.16;5055049;28;20021;-82
2023/04/08 02:38:28;;;;;;;7.20;3.80;;;;;;;7.59;98.56;102196.44;5054315;28;19959;-83
2023/04/08 02:40:54;;;;;;;7.95;3.97;;;;;;;7.56;98.30;102202.41;5053590;28;20036;-83
2023/04/08 02:43:19;;;;;;;8.03;3.97;;;;;;;7.58;98.32;102205.91;5054497;28;20485;-83
2023/04/08 02:45:45;;;;;;;7.30;4.07;;;;;;;7.59;98.28;102206.78;5053437;28;20043;-83
2023/04/08 02:48:10;;;;;;;8.17;4.40;;;;;;;7.58;100.00;102205.91;5054380;28;20017;-83
2023/04/08 02:50:36;;;;;;;8.77;4.30;;;;;;;7.55;99.23;102207.56;5053748;28;20044;-83
2023/04/08 02:53:01;;;;;;;8.23;4.47;;;;;;;7.56;99.02;102217.91;5053421;28;20029;-82
2023/04/08 02:55:47;;;;;;;8.20;4.20;;;;;;;7.50;98.87;102194.56;5053654;28;20056;-83
2023/04/08 02:58:14;;;;;;;8.53;4.30;;;;;;;7.56;98.98;102207.56;5033762;28;20036;-83
2023/04/08 03:00:40;;;;;;;7.30;3.83;;;;;;;7.58;98.81;102216.22;5033028;28;20029;-83
2023/04/08 03:03:06;;;;;;;6.93;4.10;;;;;;;7.56;99.05;102215.31;5034220;28;20028;-83
2023/04/08 03:05:31;;;;;;;7.20;3.70;;;;;;;7.58;98.80;102213.66;5033894;28;20144;-83
2023/04/08 03:07:56;;;;;;;7.07;3.93;;;;;;;7.58;98.89;102208.47;5032940;28;20029;-83
2023/04/08 03:10:24;;;;;;;5.90;3.60;;;;;;;7.58;98.88;102208.47;5033647;28;20060;-83
2023/04/08 03:12:50;;;;;;;6.15;3.92;;;;;;;7.59;98.99;102204.19;5033787;28;20053;-83
2023/04/08 03:15:15;;;;;;;6.87;3.80;;;;;;;7.58;99.00;102210.22;5042829;28;20063;-83
2023/04/08 03:17:40;;;;;;;7.63;3.93;;;;;;;7.58;99.10;102208.47;5053095;28;20115;-83
2023/04/08 03:20:07;;;;;;;7.27;4.00;;;;;;;7.60;99.02;102217.97;5053988;28;20059;-83
2023/04/08 03:22:33;;;;;;;7.40;4.00;;;;;;;7.58;98.93;102208.47;5052275;28;20048;-82
2023/04/08 03:24:58;;;;;;;7.40;3.87;;;;;;;7.57;99.03;102211.91;5053465;28;20397;-83
2023/04/08 03:27:24;;;;;;;9.23;4.10;;;;;;;7.56;99.04;102205.00;5053496;28;20048;-83
2023/04/08 03:29:49;;;;;;;7.72;4.20;;;;;;;7.55;98.91;102204.97;5053014;28;20048;-83
2023/04/08 03:32:14;;;;;;;9.33;4.30;;;;;;;7.50;98.71;102202.31;5053637;28;20033;-83
2023/04/08 03:34:46;;;;;;;8.30;4.30;;;;;;;7.49;99.09;102210.88;5052905;28;20051;-83
2023/04/08 03:37:11;;;;;;;7.88;4.28;;;;;;;7.46;98.89;102205.66;5052780;28;20095;-83
2023/04/08 03:39:37;;;;;;;7.73;4.03;;;;;;;7.44;98.82;102209.91;5053137;28;20025;-83
2023/04/08 03:42:05;;;;;;;8.50;4.60;;;;;;;7.38;98.72;102207.22;5052059;28;20396;-83
2023/04/08 03:44:30;;;;;;;7.80;4.40;;;;;;;7.34;98.65;102208.00;5052722;28;20039;-83
2023/04/08 03:46:56;;;;;;;9.13;4.70;;;;;;;7.34;98.90;102213.16;5053380;28;20029;-83
2023/04/08 03:49:21;;;;;;;7.82;4.45;;;;;;;7.31;98.68;102211.41;5052343;28;20017;-83
2023/04/08 03:51:46;;;;;;;8.43;4.57;;;;;;;7.29;98.66;102209.63;5053012;28;20025;-83
2023/04/08 03:54:12;;;;;;;8.57;4.57;;;;;;;7.26;98.71;102211.31;5053044;28;20113;-83
2023/04/08 03:56:39;;;;;;;8.87;4.70;;;;;;;7.23;98.66;102216.41;5052409;28;20025;-83
2023/04/08 03:59:05;;;;;;;8.35;4.18;;;;;;;7.21;98.66;102223.22;5052839;28;20151;-83
2023/04/08 04:01:31;;;;;;;8.87;4.50;;;;;;;7.14;98.74;102213.63;5052698;28;20536;-82
2023/04/08 04:03:56;;;;;;;7.97;4.47;;;;;;;7.16;98.78;102227.44;5052419;28;20074;-83
2023/04/08 04:06:22;;;;;;;8.07;3.95;;;;;;;7.16;99.03;102229.13;5052482;28;20354;-83
2023/04/08 04:08:48;;;;;;;7.10;4.10;;;;;;;7.12;99.02;102225.63;5053236;28;20031;-83
2023/04/08 04:11:14;;;;;;;6.70;3.95;;;;;;;7.13;99.05;102222.22;5051901;28;20021;-83
2023/04/08 04:13:39;;;;;;;7.77;3.70;;;;;;;7.09;99.19;102217.84;5052928;28;20063;-83
2023/04/08 04:16:05;;;;;;;9.13;4.43;;;;;;;7.09;100.00;102220.41;5052792;28;20457;-83
2023/04/08 04:18:30;;;;;;;9.17;4.77;;;;;;;7.09;100.00;102228.16;5052046;28;20199;-83
2023/04/08 04:20:55;;;;;;;7.80;4.37;;;;;;;7.06;100.00;102233.25;5052285;28;20025;-83
2023/04/08 04:23:23;;;;;;;7.83;4.07;;;;;;;7.06;100.00;102236.69;5052639;28;20029;-82
2023/04/08 04:25:51;;;;;;;8.38;4.60;;;;;;;7.07;99.87;102235.84;5052097;28;20103;-83
2023/04/08 04:28:16;;;;;;;8.50;4.50;;;;;;;7.06;99.94;102236.69;5052566;28;20019;-83
2023/04/08 04:30:41;;;;;;;8.20;4.13;;;;;;;7.08;99.90;102244.50;5052009;28;20028;-83
2023/04/08 04:33:07;;;;;;;8.37;4.50;;;;;;;7.06;99.72;102247.03;5051961;28;20044;-83
2023/04/08 04:35:32;;;;;;;8.25;4.30;;;;;;;7.06;99.78;102241.00;5052205;28;20021;-83
2023/04/08 04:37:57;;;;;;;8.17;4.50;;;;;;;7.04;99.99;102242.66;5052391;28;20025;-83
2023/04/08 04:40:25;;;;;;;8.77;4.13;;;;;;;7.11;99.77;102250.59;5051492;28;20021;-83
2023/04/08 04:42:51;;;;;;;10.50;4.57;;;;;;;7.14;99.77;102254.09;5052579;28;20021;-83
2023/04/08 04:45:16;;;;;;;9.87;4.53;;;;;;;7.14;99.77;102259.25;5052314;28;20029;-83
2023/04/08 04:47:41;;;;;;;9.87;4.47;;;;;;;7.12;100.00;102256.59;5051390;28;20116;-83
2023/04/08 04:50:07;;;;;;;8.77;4.23;;;;;;;7.18;99.97;102261.03;5052217;28;20070;-83
2023/04/08 04:52:35;;;;;;;8.47;4.20;;;;;;;7.19;99.84;102268.84;5051089;28;20052;-83
2023/04/08 04:55:03;;;;;;;7.90;4.20;;;;;;;7.20;99.74;102265.41;5055539;28;20060;-83
2023/04/08 04:57:28;;;;;;;7.72;4.18;;;;;;;7.17;99.77;102261.88;5056200;28;20017;-83
2023/04/08 04:59:53;;;;;;;10.50;4.87;;;;;;;7.19;99.74;102260.19;5055909;28;20120;-83
2023/04/08 05:02:21;;;;;;;9.53;4.53;;;;;;;7.21;99.93;102274.88;5056163;28;20472;-83
2023/04/08 05:04:47;;;;;;;9.07;4.40;;;;;;;7.21;100.00;102276.59;5056112;28;20396;-83
2023/04/08 05:07:12;;;;;;;9.10;4.40;;;;;;;7.20;100.00;102275.75;5055420;28;20023;-83
2023/04/08 05:09:37;;;;;;;9.60;4.78;;;;;;;7.17;100.00;102277.38;5055785;28;20032;-83
2023/04/08 05:12:03;;;;;;;16.40;6.87;;;;;;;7.18;100.00;102280.00;5056321;28;20051;-83
2023/04/08 05:14:29;;;;;;;23.57;11.23;;;;;;;7.10;100.00;102279.81;5055146;28;20039;-83
2023/04/08 05:16:57;;;;;;;27.42;14.63;;;;;;;7.05;100.00;102272.81;5056264;28;20181;-83
2023/04/08 05:19:22;;;;;;;26.08;14.02;;;;;;;6.97;100.00;102274.34;5055557;28;20025;-83
2023/04/08 05:21:48;;;;;;;22.70;12.30;;;;;;;6.99;100.00;102285.56;5055325;28;20083;-83
2023/04/08 05:24:16;;;;;;;21.17;10.33;;;;;;;7.01;100.00;102284.78;5056000;28;20033;-83
2023/04/08 05:26:41;;;;;;;22.48;11.07;;;;;;;6.99;100.00;102285.56;5055744;28;20028;-83
2023/04/08 05:29:06;;;;;;;22.03;11.20;;;;;;;6.97;100.00;102292.44;5054855;28;20116;-83
2023/04/08 05:31:32;;;;;;;22.58;11.45;;;;;;;6.93;100.00;102294.94;5055485;28;20036;-83
2023/04/08 05:33:57;;;;;;;18.73;9.37;;;;;;;6.95;100.00;102294.94;5055858;28;20021;-83
2023/04/08 05:36:22;;;;;;;22.25;11.23;;;;;;;6.91;100.00;102296.59;5055212;28;20021;-83
2023/04/08 05:38:47;;;;;;;20.50;9.60;;;;;;;6.92;100.00;102294.91;5055847;28;20440;-83
2023/04/08 05:41:13;;;;;;;19.33;8.82;;;;;;;6.93;100.00;102292.34;5055416;28;20031;-83
2023/04/08 05:43:38;;;;;;;21.53;9.63;;;;;;;6.93;100.00;102300.09;5054537;28;20025;-83
2023/04/08 05:46:08;;;;;;;31.63;17.47;;;;;;;6.85;100.00;102301.63;5055638;28;20087;-83
2023/04/08 05:48:33;;;;;;;30.17;16.27;;;;;;;6.84;100.00;102309.31;5055125;28;20159;-83
2023/04/08 05:50:59;;;;;;;25.83;13.00;;;;;;;6.85;100.00;102309.38;5054792;28;20029;-83
2023/04/08 05:53:25;;;;;;;24.42;12.25;;;;;;;6.85;100.00;102293.88;5055151;28;20116;-83
2023/04/08 05:55:50;;;;;;;23.15;11.55;;;;;;;6.90;100.00;102307.75;5054760;28;20028;-83
2023/04/08 05:58:15;;;;;;;23.05;11.73;;;;;;;6.95;100.00;102311.34;5054911;28;20025;-90
2023/04/08 06:00:40;;;;;;;24.60;12.90;;;;;;;6.90;100.00;102306.91;5055179;28;20033;-83
2023/04/08 06:03:06;;;;;;;25.87;12.97;;;;;;;6.91;100.00;102319.81;5054536;28;20024;-85
2023/04/08 06:05:34;;;;;;;23.60;12.10;;;;;;;6.92;100.00;102316.41;5054131;28;20082;-84
2023/04/08 06:08:00;;;;;;;22.88;11.65;;;;;;;6.92;100.00;102324.16;5055012;28;20374;-86
2023/04/08 06:10:25;;;;;;;23.37;11.23;;;;;;;6.97;100.00;102323.41;5054344;28;20028;-75
2023/04/08 06:12:53;;;;;;;24.50;12.03;;;;;;;6.94;100.00;102312.16;5055345;28;20437;-83
2023/04/08 06:15:19;;;;;;;23.83;12.27;;;;;;;7.03;100.00;102324.41;5055008;28;20056;-83
2023/04/08 06:17:47;;;;;;;24.52;12.77;;;;;;;7.07;100.00;102322.78;5054027;28;20389;-84
2023/04/08 06:20:13;;;;;;;23.63;12.52;;;;;;;7.06;100.00;102326.19;5055020;28;20142;-83
2023/04/08 06:22:38;;;;;;;24.33;13.17;;;;;;;7.08;100.00;102332.28;5054053;28;20115;-83
2023/04/08 06:25:04;;;;;;;23.63;11.80;;;;;;;7.11;100.00;102340.06;5053699;28;20033;-83
2023/04/08 06:27:29;;;;;;;23.20;11.80;;;;;;;7.10;100.00;102325.41;5054403;28;20036;-83
2023/04/08 06:29:54;;;;;;;20.93;9.83;;;;;;;7.14;100.00;102331.53;5054409;28;20033;-83
2023/04/08 06:32:20;;;;;;;19.00;8.95;;;;;;;7.16;100.00;102335.88;5053368;28;20032;-83
2023/04/08 06:34:47;;;;;;;19.50;9.25;;;;;;;7.23;100.00;102342.94;5054548;28;20052;-84
2023/04/08 06:37:12;;;;;;;23.85;12.45;;;;;;;7.23;100.00;102342.94;5054328;28;20033;-83
2023/04/08 06:39:37;;;;;;;23.10;11.80;;;;;;;7.24;100.00;102352.44;5053385;28;20346;-84
2023/04/08 06:42:03;;;;;;;20.20;9.67;;;;;;;7.28;100.00;102355.09;5054086;28;20040;-83
2023/04/08 06:44:28;;;;;;;21.23;10.20;;;;;;;7.33;100.00;102359.50;5054107;28;20032;-83
2023/04/08 06:46:53;;;;;;;20.53;9.77;;;;;;;7.35;100.00;102356.97;5053735;28;20116;-84
2023/04/08 06:49:19;;;;;;;22.07;11.17;;;;;;;7.33;100.00;102359.50;5054308;28;20469;-83
2023/04/08 06:51:44;;;;;;;26.07;13.57;;;;;;;7.35;100.00;102367.28;5054055;28;20036;-83
2023/04/08 06:54:09;;;;;;;22.27;11.63;;;;;;;7.35;100.00;102368.19;5053406;28;20115;-84
2023/04/08 06:56:36;;;;;;;20.83;9.93;;;;;;;7.37;100.00;102363.94;5053935;28;20102;-82
2023/04/08 06:59:02;;;;;;;19.27;8.97;;;;;;;7.44;100.00;102361.47;5050740;28;20032;-83
2023/04/08 07:01:27;;;;;;;24.25;12.45;;;;;;;7.41;100.00;102364.88;5051537;28;21092;-83
2023/04/08 07:03:52;;;;;;;25.37;13.73;;;;;;;7.39;100.00;102371.69;5051350;28;20108;-82
2023/04/08 07:06:18;;;;;;;22.23;11.67;;;;;;;7.44;100.00;102384.72;5052113;28;20094;-83
2023/04/08 07:08:43;;;;;;;20.90;10.03;;;;;;;7.41;100.00;102368.31;5053173;28;20559;-82
2023/04/08 07:11:08;;;;;;;19.10;9.00;;;;;;;7.54;100.00;102384.09;5051069;28;20037;-83
2023/04/08 07:13:34;;;;;;;17.10;7.85;;;;;;;7.60;100.00;102379.03;5052679;28;20025;-83
2023/04/08 07:15:59;;;;;;;21.50;10.33;;;;;;;7.57;100.00;102384.16;5054044;28;20025;-84
2023/04/08 07:18:25;;;;;;;21.00;10.43;;;;;;;7.58;100.00;102384.19;5052447;28;20116;-84
2023/04/08 07:20:52;;;;;;;23.43;12.17;;;;;;;7.55;100.00;102391.84;5053061;28;20033;-84
2023/04/08 07:23:18;;;;;;;22.20;11.88;;;;;;;7.56;100.00;102392.75;5053732;28;20035;-83
2023/04/08 07:25:43;;;;;;;22.43;12.30;;;;;;;7.57;100.00;102402.25;5053446;28;20103;-84
2023/04/08 07:28:08;;;;;;;25.33;13.23;;;;;;;7.50;100.00;102408.09;5052528;28;20138;-82
2023/04/08 07:30:34;;;;;;;24.57;13.73;;;;;;;7.49;100.00;102414.97;5053217;28;20013;-82
2023/04/08 07:32:59;;;;;;;22.30;11.68;;;;;;;7.50;100.00;102414.16;5053422;28;20025;-82
2023/04/08 07:35:24;;;;;;;25.13;14.13;;;;;;;7.42;100.00;102413.97;5052768;28;20032;-82
2023/04/08 07:37:50;;;;;;;26.13;14.43;;;;;;;7.38;100.00;102416.44;5053577;28;20048;-82
2023/04/08 07:40:16;;;;;;;22.23;11.37;;;;;;;7.42;100.00;102418.28;5053338;28;20097;-82
2023/04/08 07:42:41;;;;;;;22.00;11.53;;;;;;;7.47;100.00;102415.78;5052143;28;20044;-82
2023/04/08 07:45:07;;;;;;;25.65;13.82;;;;;;;7.50;100.00;102421.91;5053294;28;20025;-82
2023/04/08 07:47:32;;;;;;;25.55;14.07;;;;;;;7.47;100.00;102420.97;5052678;28;20021;-82
2023/04/08 07:49:57;;;;;;;30.35;17.08;;;;;;;7.45;100.00;102425.22;5052424;28;20036;-81
2023/04/08 07:52:23;;;;;;;31.83;18.60;;;;;;;7.24;100.00;102422.16;5052645;28;20036;-83
2023/04/08 07:54:48;;;;;;;33.50;19.13;;;;;;;7.11;100.00;102436.47;5051698;28;20056;-82
2023/04/08 07:57:13;;;;;;;31.87;19.23;;;;;;;7.05;100.00;102423.41;5051873;28;20226;-82
2023/04/08 07:59:39;;;;;;;29.33;16.85;;;;;;;7.13;100.00;102426.19;5052653;28;20029;-82
2023/04/08 08:02:04;;;;;;;27.60;14.93;;;;;;;7.22;100.00;102436.72;5053144;28;20376;-85
2023/04/08 08:04:30;;;;;;;24.02;12.95;;;;;;;7.31;100.00;102437.81;5052341;28;20017;-78
2023/04/08 08:06:55;;;;;;;23.80;12.40;;;;;;;7.38;100.00;102432.81;5053326;28;20416;-84
2023/04/08 08:09:20;;;;;;;22.67;11.50;;;;;;;7.45;100.00;102443.28;5052197;28;20060;-83
2023/04/08 08:11:46;;;;;;;29.20;16.63;;;;;;;7.40;100.00;102440.59;5052838;28;20048;-83
2023/04/08 08:14:13;;;;;;;28.63;15.67;;;;;;;7.40;100.00;102443.19;5052577;28;20486;-83
2023/04/08 08:16:38;;;;;;;30.73;17.25;;;;;;;7.33;100.00;102449.91;5051618;28;21189;-83
2023/04/08 08:19:06;;;;;;;27.43;15.30;;;;;;;7.31;100.00;102451.59;5053060;28;20420;-83
2023/04/08 08:21:31;;;;;;;31.95;18.15;;;;;;;7.24;100.00;102453.13;5051440;28;20412;-83
2023/04/08 08:23:58;;;;;;;29.97;17.13;;;;;;;7.19;100.00;102457.34;5052332;28;20058;-83
2023/04/08 08:26:46;;;;;;;29.50;17.20;;;;;;;7.19;100.00;102459.03;5052763;28;20067;-83
2023/04/08 08:29:18;;;;;;;28.10;16.30;;;;;;;7.21;100.00;102452.19;5051249;28;20020;-83
2023/04/08 08:31:44;;;;;;;25.45;13.60;;;;;;;7.29;100.00;102458.41;5051505;28;20037;-83
2023/04/08 08:34:09;;;;;;;22.63;11.83;;;;;;;7.38;100.00;102455.19;5052531;28;20120;-83
2023/04/08 08:36:35;;;;;;;21.70;11.23;;;;;;;7.50;100.00;102455.47;5052230;28;20049;-83
2023/04/08 08:39:03;;;;;;;21.77;11.07;;;;;;;7.54;100.00;102462.44;5051896;28;20021;-83
2023/04/08 08:41:34;;;;;;;22.58;11.43;;;;;;;7.58;100.00;102464.28;5052272;28;20028;-83
2023/04/08 08:43:59;;;;;;;26.55;14.65;;;;;;;7.55;100.00;102469.38;5052840;28;20029;-83
2023/04/08 08:46:28;;;;;;;27.07;14.40;;;;;;;7.53;100.00;102465.91;5052014;28;20029;-83
2023/04/08 08:48:54;;;;;;;28.05;16.50;;;;;;;7.56;100.00;102476.28;5052574;28;20552;-83
2023/04/08 08:51:25;;;;;;;29.07;17.23;;;;;;;7.48;100.00;102477.81;5052663;28;20112;-83
2023/04/08 08:53:50;;;;;;;29.88;17.33;;;;;;;7.47;100.00;102476.06;5051629;28;20076;-86
2023/04/08 08:56:16;;;;;;;28.63;16.67;;;;;;;7.42;100.00;102478.53;5052603;28;20056;-85
2023/04/08 08:58:41;;;;;;;24.65;13.32;;;;;;;7.45;100.00;102475.16;5051452;28;20021;-85
2023/04/08 09:01:36;;;;;;;26.77;14.43;;;;;;;7.51;100.00;102472.72;5052549;28;20538;-86
2023/04/08 09:04:15;;;;;;;30.55;17.40;;;;;;;7.44;100.00;102480.28;5052555;28;20025;-85
2023/04/08 09:06:41;;;;;;;32.00;17.95;;;;;;;7.36;100.00;102482.69;5051864;28;20440;-85
2023/04/08 09:09:10;;;;;;;30.07;16.97;;;;;;;7.36;100.00;102485.28;5052506;28;20020;-85
2023/04/08 09:11:40;;;;;;;26.65;14.32;;;;;;;7.41;100.00;102491.44;5052307;28;20299;-85
2023/04/08 09:14:19;;;;;;;26.40;14.10;;;;;;;7.49;100.00;102489.00;5052286;28;20025;-87
2023/04/08 09:16:44;;;;;;;24.92;14.00;;;;;;;7.50;100.00;102491.66;5053422;28;20063;-87
2023/04/08 09:19:11;;;;;;;24.13;13.47;;;;;;;7.59;100.00;102498.75;5053065;28;20021;-89
2023/04/08 09:21:37;;;;;;;25.67;14.23;;;;;;;7.60;100.00;102495.31;5053321;28;20029;-90
2023/04/08 09:24:03;;;;;;;26.23;15.73;;;;;;;7.63;100.00;102500.56;5053268;28;20017;-86
2023/04/08 09:26:31;;;;;;;28.80;17.77;;;;;;;7.61;100.00;102506.53;5051839;28;20362;-86
2023/04/08 09:29:00;;;;;;;26.85;16.15;;;;;;;7.66;100.00;102503.22;5051203;28;20033;-81
2023/04/08 09:31:27;;;;;;;24.05;14.02;;;;;;;7.75;100.00;102505.16;5052397;28;20052;-89
2023/04/08 09:33:56;;;;;;;26.05;15.43;;;;;;;7.77;100.00;102505.19;5052780;28;20043;-90
2023/04/08 09:36:21;;;;;;;22.65;13.65;;;;;;;7.83;100.00;102502.72;5053573;28;20024;-88
2023/04/08 09:38:47;;;;;;;25.20;15.53;;;;;;;7.88;100.00;102509.75;5053646;28;20025;-90
2023/04/08 09:41:15;;;;;;;23.48;14.35;;;;;;;7.91;100.00;102503.78;5054736;28;20092;-89
2023/04/08 09:43:53;;;;;;;21.98;12.35;;;;;;;8.04;100.00;102503.22;5071845;22;20053;-89
2023/04/08 09:46:32;;;;;;;21.88;12.07;;;;;;;8.21;100.00;102504.44;5056722;28;20028;-88
2023/04/08 09:49:01;;;;;;;20.60;11.13;;;;;;;8.29;100.00;102508.91;5055143;28;20043;-87
2023/04/08 09:51:32;;;;;;;20.13;10.35;;;;;;;8.35;100.00;102501.28;5056053;28;20033;-89
2023/04/08 09:54:02;;;;;;;17.98;8.88;;;;;;;8.47;100.00;102500.69;5056390;28;20029;-88
2023/04/08 09:56:36;;;;;;;18.63;9.38;;;;;;;8.60;100.00;102506.09;5055034;28;20052;-87
2023/04/08 09:59:08;;;;;;;23.15;13.43;;;;;;;8.59;100.00;102510.44;5055930;28;20029;-89
2023/04/08 10:01:38;;;;;;;21.73;12.02;;;;;;;8.67;100.00;102518.31;5056399;28;20028;-89
2023/04/08 10:04:07;;;;;;;23.77;14.75;;;;;;;8.66;98.77;102516.59;5054969;28;20029;-88
2023/04/08 10:06:33;;;;;;;25.45;15.98;;;;;;;8.53;99.38;102518.06;5054796;28;20067;-86
2023/04/08 10:09:01;;;;;;;26.90;17.38;;;;;;;8.46;98.35;102518.75;5054218;28;20392;-89
2023/04/08 10:11:27;;;;;;;25.65;15.90;;;;;;;8.41;99.42;102513.47;5055774;28;20029;-89
2023/04/08 10:13:52;;;;;;;24.83;15.03;;;;;;;8.47;99.63;102518.78;5055230;28;20047;-83
2023/04/08 10:16:20;;;;;;;23.37;14.17;;;;;;;8.50;99.74;102512.81;5053902;28;20434;-83
2023/04/08 10:18:46;;;;;;;22.20;13.23;;;;;;;8.57;99.70;102513.81;5055135;28;20017;-82
2023/04/08 10:21:38;;;;;;;21.30;12.53;;;;;;;8.73;100.00;102518.44;5055009;28;20017;-82
2023/04/08 10:24:10;;;;;;;19.42;10.52;;;;;;;8.92;100.00;102516.19;5054281;28;20338;-83
2023/04/08 10:26:37;;;;;;;24.42;15.48;;;;;;;8.94;97.18;102515.41;5053554;28;20033;-82
2023/04/08 10:29:17;;;;;;;25.63;17.15;;;;;;;8.86;96.15;102516.97;5054438;28;20033;-82
2023/04/08 10:31:51;;;;;;;23.02;14.63;;;;;;;8.91;98.58;102517.94;5053447;28;20040;-84
2023/04/08 10:34:26;;;;;;;24.13;15.02;;;;;;;9.00;97.19;102521.53;5054894;28;20029;-84
2023/04/08 10:36:54;;;;;;;24.88;16.02;;;;;;;8.95;96.13;102519.72;5054807;28;20483;-84
2023/04/08 10:39:20;;;;;;;24.67;15.73;;;;;;;8.91;96.90;102515.34;5053637;28;20047;-84
2023/04/08 10:41:47;;;;;;;23.20;13.93;;;;;;;9.05;97.92;102505.22;5055099;28;20500;-85
2023/04/08 10:44:17;;;;;;;23.00;14.13;;;;;;;9.26;96.09;102506.44;5053442;28;20132;-84
2023/04/08 10:46:43;;;;;;;21.08;12.32;;;;;;;9.43;97.34;102504.13;5054618;28;20079;-84
2023/04/08 10:49:08;;;;;;;19.57;10.33;;;;;;;9.65;97.66;102501.88;5054699;28;20083;-84
2023/04/08 10:51:34;;;;;;;19.07;10.60;;;;;;;9.84;95.75;102505.59;5053336;28;20276;-85
2023/04/08 10:54:07;;;;;;;20.73;12.60;;;;;;;9.87;94.96;102496.16;5054494;28;20104;-84
2023/04/08 10:56:33;;;;;;;23.48;15.43;;;;;;;9.88;90.30;102489.25;5053977;28;20480;-85
2023/04/08 10:59:02;;;;;;;26.03;17.60;;;;;;;9.81;90.94;102492.59;5053212;28;20037;-84
2023/04/08 11:01:38;;;;;;;23.10;15.10;;;;;;;9.92;93.81;102483.25;5054146;28;20040;-84
2023/04/08 11:04:17;;;;;;;20.33;11.63;;;;;;;10.27;94.53;102482.84;5054256;28;20027;-84
2023/04/08 11:06:44;;;;;;;23.67;15.65;;;;;;;10.54;87.00;102486.66;5053043;28;20021;-85
2023/04/08 11:09:10;;;;;;;20.65;12.77;;;;;;;10.72;92.38;102490.28;5054012;28;20070;-84
2023/04/08 11:11:35;;;;;;;20.40;11.75;;;;;;;11.03;91.68;102485.41;5053721;28;20485;-84
2023/04/08 11:14:01;;;;;;;18.23;10.83;;;;;;;11.26;91.68;102493.41;5052850;28;20036;-84
2023/04/08 11:16:27;;;;;;;20.57;12.23;;;;;;;11.47;87.15;102497.91;5053878;28;20073;-84
2023/04/08 11:18:53;;;;;;;22.30;13.75;;;;;;;11.46;84.61;102493.56;5053938;28;20477;-87
2023/04/08 11:21:19;;;;;;;24.53;15.83;;;;;;;11.39;85.32;102489.16;5053268;28;20109;-84